KSCH/SCH METAR and TAF weather

Enter ICAO airport designator
Station Type Date Time Source
KSCH METAR 2019/11/21 02:49 UTC NOAA

KSCH 210249Z 05005KT 10SM OVC044 01/01 A3013 RMK LAST


Station Type Date Time Source
KSCH Decoded METAR 2019/11/21 02:49 UTC NOAA

Schenectady Airport, NY, United States (KSCH) 42-51N 073-56W
Nov 20, 2019 - 09:49 PM EST / 2019.11.21 0249 UTC
Wind: from the NE (050 degrees) at 6 MPH (5 KT):0
Visibility: 10 mile(s):0
Sky conditions: overcast
Temperature: 33 F (1 C)
Windchill: 26 F (-3 C):1
Dew Point: 33 F (1 C)
Relative Humidity: 100%
Pressure (altimeter): 30.13 in. Hg (1020 hPa)
ob: KSCH 210249Z 05005KT 10SM OVC044 01/01 A3013 RMK LAST
cycle: 3

Station Type Date Time Source
KSCH TAF UTC NOAA

Error!

Example: see airport list